createdAt,value
2023-03-23T15:59:09.478Z,5.50
2023-03-23T16:01:37.727Z,2.80
2023-03-23T16:04:22.424Z,2.95
2023-03-23T16:06:51.924Z,5.53
2023-03-23T16:09:20.649Z,5.13
2023-03-23T16:11:47.385Z,4.78
2023-03-23T16:14:14.162Z,5.18
2023-03-23T16:16:50.835Z,3.70
2023-03-23T16:19:20.271Z,4.05
2023-03-23T16:21:46.960Z,5.00
2023-03-23T16:24:13.464Z,3.65
2023-03-23T16:26:40.770Z,3.80
2023-03-23T16:29:22.312Z,7.72
2023-03-23T16:31:55.347Z,4.07
2023-03-23T16:34:21.848Z,4.75
2023-03-23T16:36:48.351Z,3.95
2023-03-23T16:39:18.942Z,3.83
2023-03-23T16:41:45.713Z,6.18
2023-03-23T16:44:12.591Z,2.65
2023-03-23T16:46:39.558Z,4.72
2023-03-23T16:49:06.020Z,3.75
2023-03-23T16:51:32.660Z,3.15
2023-03-23T16:53:59.169Z,5.95
2023-03-23T16:56:25.782Z,4.50
2023-03-23T16:58:52.224Z,4.75
2023-03-23T17:01:19.732Z,4.88
2023-03-23T17:03:46.282Z,4.85
2023-03-23T17:06:12.962Z,5.22
2023-03-23T17:08:39.414Z,5.07
2023-03-23T17:11:06.044Z,4.28
2023-03-23T17:13:32.850Z,3.70
2023-03-23T17:15:59.305Z,4.70
2023-03-23T17:18:25.958Z,3.97
2023-03-23T17:20:53.502Z,9.00
2023-03-23T17:23:20.003Z,5.78
2023-03-23T17:25:47.569Z,8.00
2023-03-23T17:28:14.453Z,5.35
2023-03-23T17:30:42.581Z,4.28
2023-03-23T17:33:09.543Z,7.55
2023-03-23T17:35:36.202Z,4.03
2023-03-23T17:38:02.733Z,6.80
2023-03-23T17:40:29.245Z,6.40
2023-03-23T17:42:55.817Z,6.70
2023-03-23T17:45:22.300Z,7.55
2023-03-23T17:47:48.714Z,8.45
2023-03-23T17:50:15.453Z,5.47
2023-03-23T17:52:43.410Z,8.18
2023-03-23T17:55:11.064Z,9.18
2023-03-23T17:57:37.666Z,10.90
2023-03-23T18:00:08.565Z,10.80
2023-03-23T18:02:36.904Z,16.75
2023-03-23T18:05:03.769Z,12.80
2023-03-23T18:07:30.165Z,9.65
2023-03-23T18:10:00.731Z,9.18
2023-03-23T18:12:27.523Z,9.63
2023-03-23T18:14:58.020Z,6.85
2023-03-23T18:17:24.732Z,5.22
2023-03-23T18:19:51.242Z,4.95
2023-03-23T18:22:17.788Z,8.10
2023-03-23T18:24:44.287Z,8.73
2023-03-23T18:27:10.836Z,7.50
2023-03-23T18:29:37.290Z,10.52
2023-03-23T18:32:03.990Z,11.45
2023-03-23T18:34:31.987Z,7.90
2023-03-23T18:36:58.443Z,11.75
2023-03-23T18:39:24.932Z,8.70
2023-03-23T18:41:51.471Z,8.18
2023-03-23T18:44:17.882Z,9.20
2023-03-23T18:46:44.289Z,8.75
2023-03-23T18:49:10.699Z,9.63
2023-03-23T18:51:37.830Z,8.93
2023-03-23T18:54:04.493Z,6.22
2023-03-23T18:56:30.940Z,7.13
2023-03-23T18:58:57.481Z,9.20
2023-03-23T19:01:23.980Z,10.80
2023-03-23T19:03:50.442Z,7.07
2023-03-23T19:06:20.200Z,8.82
2023-03-23T19:08:48.339Z,9.73
2023-03-23T19:11:16.025Z,7.22
2023-03-23T19:13:53.804Z,6.50
2023-03-23T19:16:25.400Z,7.88
2023-03-23T19:18:51.877Z,8.35
2023-03-23T19:21:21.228Z,6.05
2023-03-23T19:23:51.610Z,7.72
2023-03-23T19:26:23.871Z,7.78
2023-03-23T19:31:22.658Z,9.77
2023-03-23T19:33:49.215Z,7.57
2023-03-23T19:36:18.438Z,5.97
2023-03-23T19:38:44.977Z,8.52
2023-03-23T19:41:12.128Z,7.40
2023-03-23T19:43:38.752Z,8.07
2023-03-23T19:46:05.764Z,9.18
2023-03-23T19:48:33.165Z,7.60
2023-03-23T19:50:59.599Z,7.55
2023-03-23T19:53:27.081Z,10.32
2023-03-23T19:55:53.645Z,7.28
2023-03-23T19:58:20.837Z,8.27
2023-03-23T20:00:48.684Z,7.88
2023-03-23T20:03:16.686Z,10.60
2023-03-23T20:05:44.274Z,17.98
2023-03-23T20:08:11.168Z,17.95
2023-03-23T20:10:38.656Z,18.67
2023-03-23T20:13:07.216Z,16.50
2023-03-23T20:15:34.276Z,15.00
2023-03-23T20:18:01.173Z,13.45
2023-03-23T20:20:28.633Z,15.57
2023-03-23T20:22:57.795Z,11.02
2023-03-23T20:25:25.932Z,12.35
2023-03-23T20:27:52.761Z,11.43
2023-03-23T20:30:20.122Z,10.48
2023-03-23T20:32:46.987Z,7.85
2023-03-23T20:35:14.583Z,6.57
2023-03-23T20:37:41.328Z,6.88
2023-03-23T20:40:13.112Z,5.88
2023-03-23T20:42:43.639Z,8.40
2023-03-23T20:45:12.889Z,6.90
2023-03-23T20:47:40.426Z,6.65
2023-03-23T20:50:09.013Z,5.78
2023-03-23T20:52:36.874Z,7.10
2023-03-23T20:55:06.085Z,6.63
2023-03-23T20:57:33.022Z,7.03
2023-03-23T20:59:59.686Z,6.57
2023-03-23T21:02:29.679Z,6.03
2023-03-23T21:04:58.176Z,5.38
2023-03-23T21:09:53.972Z,7.15
2023-03-23T21:12:20.544Z,5.38
2023-03-23T21:14:47.639Z,5.45
2023-03-23T21:17:14.112Z,6.82
2023-03-23T21:19:41.363Z,7.22
2023-03-23T21:22:09.716Z,7.47
2023-03-23T21:27:12.192Z,6.40
2023-03-23T21:29:40.053Z,6.03
2023-03-23T21:32:08.567Z,4.78
2023-03-23T21:34:35.991Z,6.68
2023-03-23T21:37:02.443Z,7.35
2023-03-23T21:39:28.990Z,6.30
2023-03-23T21:42:01.787Z,7.63
2023-03-23T21:44:30.224Z,6.32
2023-03-23T21:49:23.109Z,5.88
2023-03-23T21:51:50.141Z,6.70
2023-03-23T21:54:17.180Z,6.18
2023-03-23T21:56:47.525Z,5.93
2023-03-23T21:59:14.222Z,5.32
2023-03-23T22:01:40.770Z,8.88
2023-03-23T22:04:19.644Z,5.80
2023-03-23T22:07:24.437Z,5.93
2023-03-23T22:09:57.461Z,7.68
2023-03-23T22:12:30.628Z,5.75
2023-03-23T22:15:11.938Z,6.05
2023-03-23T22:17:39.898Z,8.77
2023-03-23T22:23:34.558Z,6.13
2023-03-23T22:32:27.488Z,6.38
2023-03-23T22:35:21.090Z,6.72
2023-03-23T22:42:07.657Z,6.03
2023-03-23T22:45:31.684Z,6.35
2023-03-23T22:48:34.722Z,6.53
2023-03-23T22:59:21.470Z,7.05
2023-03-23T23:08:38.242Z,6.68
2023-03-23T23:21:01.318Z,9.98
2023-03-23T23:24:12.911Z,7.03
2023-03-23T23:33:58.882Z,5.85
